Thunder radar more information blitzortung!


Radar de pluja more information rain snow radar


Visita la nostra xarxa de llocs de meteo:

Template documentation
and downloads

And another site



No particular awareness of the weather is required.    There are no Weather-warnings

Pagina Historial Weather Underground text

Diari Resum Octubre 22, 2017 Unitats:  Mètric    Imperial   Tant
« Previous Dia
SegĂźent Dia »
Diari Setmana Mensual Anual Personalitzada
  Maxima: Minima: Media:
Temperatura: -17.8 °C -10.6 °C -8.3 °C
Punt de rosada: -17.8 °C -14.9 °C -13.6 °C
Humitat: Humidity % 47 % 54 %
Wind Speed: 0 km/h 0 km/h 7.7 km/h
RĂ fegues de vent: 0 km/h - -
Vent:- - WSW
Pression baro: 0 hPa 34601.5 hPa -
Precipitacions: 0 mm    
Historical Graphs
 
 
Dades de taula per Octubre 22, 2017
Temps Temperatura Punt de rosada Pression baro Vent Wind Speed RĂ fegues de vent Humitat Rainfall Rate (Hourly)
-17.8 °C -17.8 °C 0 hPa Calm     Humidity % 0 mm
00:03 -8 °C -9.7 °C 34601.5 hPa WSW 6 km/h 6 km/h 82 % 0 mm
00:05 -9.3 °C -13.4 °C 34635.4 hPa NW 2.6 km/h 5.1 km/h 61 % 0 mm
00:08 -8 °C -9.7 °C 34601.5 hPa WSW 3.1 km/h   82 % 0 mm
00:13 -7.9 °C -9.6 °C 34601.5 hPa WSW 3.1 km/h   83 % 0 mm
00:15 -9.4 °C -13.6 °C 34635.4 hPa North 5.1 km/h 5.1 km/h 61 % 0 mm
00:25 -9.4 °C -13.6 °C 34635.4 hPa West 2.6 km/h 10.3 km/h 61 % 0 mm
00:35 -9.5 °C -13.8 °C 34669.3 hPa WNW 5.1 km/h 12.9 km/h 60 % 0 mm
00:45 -9.6 °C -13.8 °C 34669.3 hPa NW 5.1 km/h 7.7 km/h 60 % 0 mm
00:55 -9.6 °C -14 °C 34669.3 hPa NW 12.9 km/h 12.9 km/h 59 % 0 mm
01:05 -9.6 °C -14.2 °C 34669.3 hPa WNW 12.9 km/h 15.6 km/h 58 % 0 mm
01:15 -9.7 °C -14.2 °C 34669.3 hPa West 5.1 km/h 7.7 km/h 58 % 0 mm
01:25 -9.7 °C -14.3 °C 34669.3 hPa West 5.1 km/h 7.7 km/h 58 % 0 mm
01:35 -9.8 °C -14.3 °C 34669.3 hPa WNW 2.6 km/h 5.1 km/h 58 % 0 mm
01:45 -9.9 °C -14.4 °C 34669.3 hPa North 5.1 km/h 5.1 km/h 58 % 0 mm
01:55 -9.9 °C -14.5 °C 34669.3 hPa NNW 2.6 km/h 15.6 km/h 58 % 0 mm
02:05 -10 °C -14.6 °C 34669.3 hPa NNW 5.1 km/h 12.9 km/h 58 % 0 mm
02:15 -10.1 °C -14.5 °C 34669.3 hPa NNE 2.6 km/h 7.7 km/h 59 % 0 mm
02:25 -10.2 °C -14.6 °C 34669.3 hPa NE 5.1 km/h 12.9 km/h 59 % 0 mm
02:35 -10.2 °C -14.6 °C 34669.3 hPa NNE 2.6 km/h 5.1 km/h 59 % 0 mm
02:45 -10.3 °C -14.5 °C 34669.3 hPa Calm   5.1 km/h 60 % 0 mm
02:55 -10.4 °C -14.6 °C 34669.3 hPa North 2.6 km/h 5.1 km/h 60 % 0 mm
03:05 -10.4 °C -14.7 °C 34669.3 hPa WNW 2.6 km/h 5.1 km/h 60 % 0 mm
03:15 -10.4 °C -14.7 °C 34669.3 hPa WNW 2.6 km/h 7.7 km/h 60 % 0 mm
03:25 -10.6 °C -14.8 °C 34669.3 hPa Calm   2.6 km/h 60 % 0 mm
03:35 -10.6 °C -14.6 °C 34669.3 hPa NNE 2.6 km/h 5.1 km/h 61 % 0 mm
03:45 -10.6 °C -14.6 °C 34703.1 hPa NW 2.6 km/h 10.3 km/h 61 % 0 mm
03:55 -10.5 °C -14.6 °C 34703.1 hPa West 5.1 km/h 7.7 km/h 61 % 0 mm
04:05 -10.6 °C -14.6 °C 34703.1 hPa West 2.6 km/h 7.7 km/h 61 % 0 mm
04:15 -10.6 °C -14.5 °C 34703.1 hPa Calm   5.1 km/h 62 % 0 mm
04:25 -10 °C -14 °C 34703.1 hPa SW 2.6 km/h 5.1 km/h 62 % 0 mm
04:35 -9.8 °C -13.9 °C 34703.1 hPa ENE 2.6 km/h 7.7 km/h 61 % 0 mm
04:45 -9.9 °C -14 °C 34703.1 hPa NE 2.6 km/h 2.6 km/h 61 % 0 mm
04:55 -9.8 °C -13.8 °C 34703.1 hPa Calm   7.7 km/h 62 % 0 mm
05:05 -9.6 °C -13.7 °C 34740.4 hPa NE 2.6 km/h 7.7 km/h 61 % 0 mm
05:15 -9.4 °C -13.6 °C 34703.1 hPa NE 5.1 km/h 7.7 km/h 61 % 0 mm
05:25 -9.3 °C -13.5 °C 34703.1 hPa WNW 5.1 km/h 7.7 km/h 61 % 0 mm
05:35 -9.3 °C -13.6 °C 34703.1 hPa WSW 5.1 km/h 12.9 km/h 60 % 0 mm
05:45 -8.9 °C -13.2 °C 34703.1 hPa WSW 2.6 km/h 10.3 km/h 60 % 0 mm
05:55 -9.1 °C -13.4 °C 34703.1 hPa West 12.9 km/h 12.9 km/h 60 % 0 mm
06:05 -8.9 °C -13.3 °C 34740.4 hPa West 2.6 km/h 7.7 km/h 59 % 0 mm
11:09 -8.8 °C -13.2 °C 34740.4 hPa WSW 9 km/h 9 km/h 59 % 0 mm
11:10 -8.8 °C -13.4 °C 34740.4 hPa West 9 km/h 9.3 km/h 58 % 0 mm
11:15 -8.8 °C -13.4 °C 34740.4 hPa West 29.8 km/h 29.8 km/h 58 % 0 mm
11:20 -8.8 °C -13.6 °C 34740.4 hPa SW 11.9 km/h 11.9 km/h 57 % 0 mm
11:25 -8.8 °C -13.5 °C 34703.1 hPa SSW 15 km/h 15 km/h 57 % 0 mm
11:30 -8.6 °C -13.2 °C 34703.1 hPa WNW 12.7 km/h 12.7 km/h 58 % 0 mm
11:35 -8.5 °C -13.3 °C 34703.1 hPa ENE 11.9 km/h 11.9 km/h 57 % 0 mm
11:40 -8.4 °C -13.2 °C 34740.4 hPa WSW 7.6 km/h 7.6 km/h 57 % 0 mm
11:45 -8.2 °C -13.1 °C 34740.4 hPa WSW 8 km/h 8 km/h 56 % 0 mm
11:50 -8.1 °C -13 °C 34740.4 hPa SW 9 km/h 9 km/h 56 % 0 mm
11:55 -7.9 °C -12.9 °C 34740.4 hPa SW 15 km/h 15 km/h 56 % 0 mm
12:00 -8 °C -12.9 °C 34740.4 hPa SW 15 km/h 15 km/h 56 % 0 mm
12:05 -8.1 °C -13.2 °C 34740.4 hPa WNW 20.9 km/h 20.9 km/h 55 % 0 mm
12:10 -8.1 °C -13.2 °C 34740.4 hPa WSW 15 km/h 15 km/h 55 % 0 mm
12:15 -8 °C -13.1 °C 34740.4 hPa NNE 15 km/h 15 km/h 55 % 0 mm
12:20 -7.9 °C -13.2 °C 34740.4 hPa WNW 11.9 km/h 11.9 km/h 54 % 0 mm
12:25 -7.8 °C -13 °C 34703.1 hPa WNW 9 km/h 9 km/h 54 % 0 mm
12:29 -7.7 °C -12.9 °C 34703.1 hPa SW 9 km/h 9 km/h 54 % 0 mm
12:34 -7.7 °C -12.9 °C 34703.1 hPa WSW 20.9 km/h 20.9 km/h 54 % 0 mm
12:39 -7.7 °C -13.1 °C 34703.1 hPa WSW 6 km/h 6 km/h 53 % 0 mm
12:44 -7.6 °C -12.9 °C 34740.4 hPa West 12.2 km/h 12.2 km/h 54 % 0 mm
12:49 -7.6 °C -13 °C 34740.4 hPa WSW 26.9 km/h 26.9 km/h 53 % 0 mm
12:54 -7.4 °C -12.9 °C 34703.1 hPa WNW 9 km/h 9 km/h 53 % 0 mm
12:59 -7.3 °C -12.8 °C 34703.1 hPa WSW 11.9 km/h 11.9 km/h 53 % 0 mm
13:04 -7.2 °C -12.8 °C 34703.1 hPa WSW 20.3 km/h 20.3 km/h 52 % 0 mm
13:09 -7.3 °C -12.8 °C 34703.1 hPa WNW 9 km/h 9 km/h 53 % 0 mm
13:10 -7.3 °C -12.7 °C 34703.1 hPa NW 9 km/h 9 km/h 53 % 0 mm
13:15 -7.4 °C -13 °C 34703.1 hPa SW 11.9 km/h 11.9 km/h 52 % 0 mm
13:20 -7.4 °C -13 °C 34703.1 hPa SW 11.9 km/h 11.9 km/h 52 % 0 mm
13:25 -7.3 °C -12.9 °C 34740.4 hPa NW 15 km/h 15 km/h 52 % 0 mm
13:30 -7.3 °C -12.9 °C 34740.4 hPa WNW 11.9 km/h 11.9 km/h 52 % 0 mm
13:35 -7.3 °C -12.9 °C 34740.4 hPa WNW 9 km/h 9 km/h 52 % 0 mm
13:40 -7.2 °C -12.9 °C 34740.4 hPa NNE 11.9 km/h 11.9 km/h 51 % 0 mm
13:45 -7 °C -12.8 °C 34740.4 hPa WNW 15 km/h 15 km/h 51 % 0 mm
13:50 -6.9 °C -12.7 °C 34740.4 hPa West 15 km/h 15 km/h 51 % 0 mm
13:55 -7 °C -12.8 °C 34740.4 hPa SW 16.1 km/h 16.1 km/h 51 % 0 mm
14:00 -7.1 °C -13 °C 34740.4 hPa WSW 9 km/h 9 km/h 50 % 0 mm
14:05 -6.9 °C -12.7 °C 34740.4 hPa WNW 11.6 km/h 11.6 km/h 51 % 0 mm
14:10 -6.8 °C -12.8 °C 34740.4 hPa SW 15.6 km/h 15.6 km/h 50 % 0 mm
14:15 -6.9 °C -12.8 °C 34740.4 hPa West 11.9 km/h 11.9 km/h 50 % 0 mm
14:20 -6.9 °C -12.9 °C 34740.4 hPa WSW 9 km/h 9 km/h 50 % 0 mm
14:25 -6.8 °C -12.7 °C 34740.4 hPa West 20.9 km/h 20.9 km/h 50 % 0 mm
14:30 -6.8 °C -12.7 °C 34740.4 hPa West 11.9 km/h 11.9 km/h 50 % 0 mm
14:35 -6.8 °C -12.9 °C 34740.4 hPa SW 16.1 km/h 16.1 km/h 49 % 0 mm
14:40 -6.8 °C -12.9 °C 34703.1 hPa WNW 15 km/h 15 km/h 49 % 0 mm
14:45 -6.8 °C -12.9 °C 34703.1 hPa NW 9 km/h 9 km/h 49 % 0 mm
14:50 -6.7 °C -12.7 °C 34703.1 hPa WSW 8.5 km/h 12.7 km/h 50 % 0 mm
14:55 -6.8 °C -12.9 °C 34669.3 hPa West 11.9 km/h 11.9 km/h 49 % 0 mm
15:00 -6.6 °C -12.7 °C 34669.3 hPa WSW 11.9 km/h 11.9 km/h 49 % 0 mm
15:05 -6.6 °C -12.7 °C 34669.3 hPa WSW 20.9 km/h 20.9 km/h 49 % 0 mm
15:10 -6.6 °C -12.7 °C 34669.3 hPa West 9.3 km/h 9.3 km/h 49 % 0 mm
15:20 -6.5 °C -12.7 °C 34669.3 hPa WSW 20.9 km/h 20.9 km/h 49 % 0 mm
15:25 -6.5 °C -12.7 °C 34669.3 hPa SW 11.9 km/h 11.9 km/h 49 % 0 mm
15:30 -6.4 °C -12.6 °C 34669.3 hPa SW 9 km/h 9 km/h 49 % 0 mm
15:35 -6.4 °C -12.6 °C 34669.3 hPa SW 17.9 km/h 17.9 km/h 49 % 0 mm
15:40 -6.6 °C -12.9 °C 34635.4 hPa WNW 15 km/h 15 km/h 48 % 0 mm
15:45 -6.4 °C -12.6 °C 34635.4 hPa WSW 17.9 km/h 17.9 km/h 49 % 0 mm
15:50 -6.4 °C -12.7 °C 34635.4 hPa WSW 9 km/h 9 km/h 48 % 0 mm
15:55 -6.4 °C -12.7 °C 34669.3 hPa WSW 10.3 km/h 10.3 km/h 48 % 0 mm
16:00 -6.4 °C -12.8 °C 34669.3 hPa NW 15 km/h 15 km/h 48 % 0 mm
16:05 -6.3 °C -12.7 °C 34669.3 hPa West 11.9 km/h 11.9 km/h 48 % 0 mm
16:10 -6.4 °C -12.7 °C 34669.3 hPa WSW 11.9 km/h 11.9 km/h 48 % 0 mm
16:15 -6.3 °C -12.7 °C 34669.3 hPa SW 11.1 km/h 11.1 km/h 48 % 0 mm
16:20 -6.4 °C -12.7 °C 34669.3 hPa WNW 17.9 km/h 17.9 km/h 48 % 0 mm
16:25 -6.4 °C -12.7 °C 34635.4 hPa WSW 9 km/h 9 km/h 48 % 0 mm
16:30 -6.4 °C -12.7 °C 34635.4 hPa WSW 6 km/h 6 km/h 48 % 0 mm
16:35 -6.4 °C -12.7 °C 34635.4 hPa WSW 11.9 km/h 11.9 km/h 48 % 0 mm
16:40 -6.3 °C -12.6 °C 34635.4 hPa West 9 km/h 9 km/h 48 % 0 mm
16:45 -6.2 °C -12.6 °C 34635.4 hPa NW 11.9 km/h 11.9 km/h 48 % 0 mm
16:50 -6.3 °C -12.6 °C 34635.4 hPa WSW 15 km/h 15 km/h 48 % 0 mm
16:55 -6.3 °C -12.8 °C 34635.4 hPa NW 6 km/h 6 km/h 47 % 0 mm
17:00 -6.2 °C -12.5 °C 34635.4 hPa SW 9 km/h 9 km/h 48 % 0 mm
17:05 -6.2 °C -12.7 °C 34635.4 hPa West 15 km/h 15 km/h 47 % 0 mm
17:10 -6.2 °C -12.7 °C 34635.4 hPa WSW 15 km/h 15 km/h 47 % 0 mm
17:15 -6.1 °C -12.6 °C 34635.4 hPa WNW 9 km/h 9 km/h 47 % 0 mm
17:20 -6.1 °C -12.6 °C 34635.4 hPa WSW 9 km/h 9 km/h 47 % 0 mm
17:21 -6.2 °C -12.7 °C 34635.4 hPa West 9.3 km/h 9.3 km/h 47 % 0 mm
17:26 -6.3 °C -12.8 °C 34635.4 hPa West 9 km/h 9 km/h 47 % 0 mm
17:31 -6.5 °C -13 °C 34635.4 hPa WNW 9.8 km/h 9.8 km/h 47 % 0 mm
17:36 -6.5 °C -13 °C 34635.4 hPa North 9 km/h 9 km/h 47 % 0 mm
17:41 -6.7 °C -13.2 °C 34635.4 hPa SSW 9 km/h 9 km/h 47 % 0 mm
17:46 -6.7 °C -13.2 °C 34635.4 hPa NNW 11.9 km/h 11.9 km/h 47 % 0 mm
17:51 -6.7 °C -13.2 °C 34635.4 hPa NW 9 km/h 9 km/h 47 % 0 mm
17:56 -6.8 °C -13.2 °C 34635.4 hPa West 9 km/h 9 km/h 47 % 0 mm
18:01 -6.7 °C -13.2 °C 34635.4 hPa WNW 6 km/h 6 km/h 47 % 0 mm
18:06 -6.8 °C -13.2 °C 34635.4 hPa WNW 6 km/h 6 km/h 47 % 0 mm
18:11 -6.8 °C -13.1 °C 34635.4 hPa WNW 9 km/h 9 km/h 48 % 0 mm
18:16 -6.9 °C -13.2 °C 34635.4 hPa West 9 km/h 9 km/h 48 % 0 mm
18:21 -7 °C -13.3 °C 34635.4 hPa NNW 9 km/h 9 km/h 48 % 0 mm
18:26 -7.1 °C -13.4 °C 34635.4 hPa SW 7.6 km/h 7.6 km/h 48 % 0 mm
18:31 -7.2 °C -13.4 °C 34635.4 hPa WSW 9 km/h 9 km/h 48 % 0 mm
18:36 -7.2 °C -13.5 °C 34635.4 hPa WNW 15 km/h 15 km/h 48 % 0 mm
18:41 -7.3 °C -13.4 °C 34635.4 hPa North 9 km/h 9 km/h 49 % 0 mm
18:46 -7.4 °C -13.4 °C 34635.4 hPa WNW 9 km/h 9 km/h 49 % 0 mm
18:51 -7.6 °C -13.6 °C 34635.4 hPa SW 9 km/h 9 km/h 49 % 0 mm
18:56 -7.7 °C -13.7 °C 34635.4 hPa WSW 7.6 km/h 7.6 km/h 49 % 0 mm
19:01 -7.8 °C -13.8 °C 34635.4 hPa West 6.3 km/h 6.3 km/h 49 % 0 mm
19:06 -7.8 °C -13.9 °C 34635.4 hPa SW 6 km/h 6 km/h 49 % 0 mm
19:11 -7.9 °C -14 °C 34635.4 hPa SW 3.7 km/h   49 % 0 mm
19:16 -8.1 °C -13.9 °C 34635.4 hPa WNW 3.1 km/h 3.1 km/h 50 % 0 mm
19:21 -8.2 °C -14 °C 34635.4 hPa NW 3.1 km/h   50 % 0 mm
19:26 -8.3 °C -14.1 °C 34669.3 hPa Calm     50 % 0 mm
19:31 -8.3 °C -14.2 °C 34669.3 hPa Calm     50 % 0 mm
19:36 -8.3 °C -14.2 °C 34669.3 hPa West 3.1 km/h 3.1 km/h 50 % 0 mm
19:41 -8.4 °C -13.9 °C 34669.3 hPa West 3.1 km/h 3.1 km/h 52 % 0 mm
19:46 -8.4 °C -13.9 °C 34669.3 hPa West 3.7 km/h   52 % 0 mm
19:51 -8.6 °C -14.1 °C 34669.3 hPa West 3.7 km/h 3.7 km/h 52 % 0 mm
19:56 -8.6 °C -14.1 °C 34669.3 hPa West 6 km/h 6 km/h 52 % 0 mm
20:01 -8.6 °C -14.1 °C 34669.3 hPa WSW 6 km/h 6 km/h 52 % 0 mm
20:06 -8.5 °C -14 °C 34669.3 hPa West 6.8 km/h 6.8 km/h 52 % 0 mm
20:11 -8.6 °C -14.1 °C 34669.3 hPa WSW 9 km/h 9 km/h 52 % 0 mm
20:16 -8.6 °C -14.1 °C 34669.3 hPa West 5.1 km/h 5.1 km/h 52 % 0 mm
20:21 -8.6 °C -13.9 °C 34669.3 hPa WSW 3.7 km/h 3.7 km/h 53 % 0 mm
20:26 -8.7 °C -14 °C 34669.3 hPa WSW 6 km/h 6 km/h 53 % 0 mm
20:31 -8.7 °C -14.1 °C 34669.3 hPa WSW 3.1 km/h   53 % 0 mm
20:36 -8.8 °C -14.1 °C 34669.3 hPa Calm     53 % 0 mm
20:41 -8.8 °C -14.1 °C 34669.3 hPa WNW 3.7 km/h   53 % 0 mm
20:46 -8.8 °C -14.1 °C 34669.3 hPa WSW 6 km/h 6 km/h 53 % 0 mm
20:51 -8.8 °C -14.1 °C 34669.3 hPa West 5.1 km/h   53 % 0 mm
20:56 -8.8 °C -14.1 °C 34669.3 hPa West 6 km/h 6 km/h 53 % 0 mm
21:06 -8.8 °C -14.2 °C 34669.3 hPa WSW 6 km/h   53 % 0 mm
21:11 -8.9 °C -14.2 °C 34669.3 hPa SW 6 km/h   53 % 0 mm
21:16 -8.9 °C -14.1 °C 34669.3 hPa Calm     54 % 0 mm
21:21 -9.1 °C -14.2 °C 34669.3 hPa West 3.7 km/h 3.7 km/h 54 % 0 mm
21:26 -9.1 °C -14.3 °C 34669.3 hPa WSW 6.3 km/h 6.3 km/h 54 % 0 mm
21:31 -9.2 °C -14.3 °C 34669.3 hPa WSW 3.7 km/h 3.7 km/h 54 % 0 mm
21:36 -9.2 °C -14.4 °C 34669.3 hPa West 6 km/h 6 km/h 54 % 0 mm
21:41 -9.2 °C -14.4 °C 34669.3 hPa West 3.1 km/h   54 % 0 mm
21:46 -9.3 °C -14.4 °C 34669.3 hPa West 4.2 km/h   54 % 0 mm
21:51 -9.3 °C -14.3 °C 34669.3 hPa WSW 3.1 km/h   55 % 0 mm
21:56 -9.3 °C -14.3 °C 34669.3 hPa WSW 3.1 km/h 3.1 km/h 55 % 0 mm
22:01 -9.4 °C -14.4 °C 34669.3 hPa SW 3.1 km/h 3.1 km/h 55 % 0 mm
22:06 -9.5 °C -14.3 °C 34669.3 hPa Calm     56 % 0 mm
22:11 -9.6 °C -14.4 °C 34669.3 hPa Calm     56 % 0 mm
22:16 -9.7 °C -14.5 °C 34669.3 hPa West 3.1 km/h   56 % 0 mm
22:21 -9.7 °C -14.5 °C 34669.3 hPa Calm     56 % 0 mm
22:26 -9.7 °C -14.6 °C 34669.3 hPa NW 3.1 km/h 3.1 km/h 55 % 0 mm
22:31 -9.7 °C -14.5 °C 34669.3 hPa Calm     56 % 0 mm
22:36 -9.7 °C -14.6 °C 34669.3 hPa West 2.3 km/h 3.1 km/h 56 % 0 mm
22:41 -9.7 °C -14.6 °C 34703.1 hPa Calm     56 % 0 mm
22:46 -9.7 °C -14.6 °C 34703.1 hPa NNE 3.1 km/h 3.1 km/h 56 % 0 mm
22:51 -9.8 °C -14.6 °C 34703.1 hPa Calm     56 % 0 mm
22:56 -9.8 °C -14.6 °C 34703.1 hPa Calm     56 % 0 mm
23:01 -9.8 °C -14.7 °C 34703.1 hPa Calm     56 % 0 mm
23:06 -9.8 °C -14.5 °C 34703.1 hPa Calm     57 % 0 mm
23:11 -9.9 °C -14.6 °C 34703.1 hPa WNW 3.1 km/h   57 % 0 mm
23:16 -9.9 °C -14.6 °C 34703.1 hPa WNW 3.1 km/h   57 % 0 mm
23:21 -9.9 °C -14.6 °C 34703.1 hPa WNW 3.1 km/h 3.1 km/h 57 % 0 mm
23:26 -10 °C -14.7 °C 34703.1 hPa NE 3.1 km/h   57 % 0 mm
23:31 -10.1 °C -14.6 °C 34703.1 hPa NE 5.1 km/h   58 % 0 mm
23:36 -10.1 °C -14.6 °C 34703.1 hPa WNW 6 km/h 6 km/h 58 % 0 mm
23:41 -10.1 °C -14.6 °C 34703.1 hPa NNE 3.1 km/h   58 % 0 mm
23:46 -10.1 °C -14.5 °C 34703.1 hPa WNW 3.1 km/h   59 % 0 mm
23:51 -10.3 °C -14.7 °C 34703.1 hPa SW 5.6 km/h 5.6 km/h 59 % 0 mm
23:56 -10.6 °C -14.9 °C 34703.1 hPa WSW 6.3 km/h 6.3 km/h 59 % 0 mm
Meteo Sesrovires
Elogis d' Weather Underground - 1.5 mb

Guio original per  Jim McMurry - jmcmurry@mwt.net Adaptat per a la plantilla per  Wim van der Kuil - Leuven-Template.eu

Trobareu la nostra informacio del temps tambe a:

Weather Underground

AWEKAS